createdAt,value
2018-02-22T00:00:53.202Z,35.00
2018-02-22T00:03:21.435Z,36.00
2018-02-22T00:05:48.890Z,37.07
2018-02-22T00:08:16.335Z,35.90
2018-02-22T00:10:43.807Z,35.77
2018-02-22T00:13:11.255Z,36.90
2018-02-22T00:15:38.747Z,37.23
2018-02-22T00:18:06.199Z,36.30
2018-02-22T00:20:33.651Z,35.97
2018-02-22T00:23:01.115Z,35.33
2018-02-22T00:25:28.592Z,39.27
2018-02-22T00:27:56.812Z,37.17
2018-02-22T00:30:24.294Z,36.80
2018-02-22T00:32:51.755Z,37.57
2018-02-22T00:35:19.195Z,36.77
2018-02-22T00:37:46.659Z,35.70
2018-02-22T00:40:14.139Z,35.10
2018-02-22T00:42:41.580Z,34.97
2018-02-22T00:45:09.027Z,37.30
2018-02-22T00:47:36.495Z,35.73
2018-02-22T00:50:03.951Z,36.53
2018-02-22T00:52:31.407Z,32.37
2018-02-22T00:54:58.878Z,36.00
2018-02-22T00:57:26.352Z,34.73
2018-02-22T00:59:54.572Z,36.03
2018-02-22T01:02:22.047Z,38.23
2018-02-22T01:04:49.496Z,37.30
2018-02-22T01:07:16.931Z,35.30
2018-02-22T01:09:44.402Z,35.83
2018-02-22T01:12:11.929Z,36.70
2018-02-22T01:14:39.422Z,36.70
2018-02-22T01:17:06.879Z,35.03
2018-02-22T01:19:34.346Z,36.23
2018-02-22T01:22:01.821Z,37.73
2018-02-22T01:24:29.287Z,36.50
2018-02-22T01:26:56.746Z,39.60
2018-02-22T01:29:24.188Z,38.27
2018-02-22T01:31:53.177Z,37.07
2018-02-22T01:34:20.651Z,38.57
2018-02-22T01:36:48.889Z,37.37
2018-02-22T01:39:16.357Z,36.70
2018-02-22T01:41:44.673Z,38.93
2018-02-22T01:44:12.906Z,39.83
2018-02-22T01:46:41.148Z,38.80
2018-02-22T01:49:08.607Z,34.83
2018-02-22T01:51:36.043Z,37.70
2018-02-22T01:54:03.503Z,37.23
2018-02-22T01:56:30.943Z,38.00
2018-02-22T01:58:58.423Z,38.63
2018-02-22T02:01:25.896Z,39.70
2018-02-22T02:03:53.344Z,37.87
2018-02-22T02:06:20.799Z,39.50
2018-02-22T02:08:48.242Z,38.60
2018-02-22T02:11:15.689Z,38.77
2018-02-22T02:13:43.130Z,37.60
2018-02-22T02:16:10.615Z,37.23
2018-02-22T02:18:38.068Z,37.43
2018-02-22T02:21:05.511Z,39.17
2018-02-22T02:23:32.967Z,38.13
2018-02-22T02:26:00.406Z,37.13
2018-02-22T02:28:27.869Z,40.23
2018-02-22T02:30:55.335Z,39.17
2018-02-22T02:33:23.570Z,39.13
2018-02-22T02:35:51.028Z,38.47
2018-02-22T02:38:18.501Z,38.77
2018-02-22T02:40:45.973Z,39.93
2018-02-22T02:43:13.435Z,39.63
2018-02-22T02:45:40.887Z,39.67
2018-02-22T02:48:08.366Z,40.23
2018-02-22T02:50:35.825Z,40.17
2018-02-22T02:53:03.301Z,37.00
2018-02-22T02:55:30.782Z,39.87
2018-02-22T02:57:59.042Z,39.93
2018-02-22T03:00:26.486Z,39.17
2018-02-22T03:02:53.928Z,38.17
2018-02-22T03:05:21.371Z,40.37
2018-02-22T03:07:49.598Z,39.10
2018-02-22T03:10:17.038Z,40.00
2018-02-22T03:12:44.515Z,39.83
2018-02-22T03:15:11.954Z,38.57
2018-02-22T03:17:39.416Z,38.07
2018-02-22T03:20:06.866Z,39.77
2018-02-22T03:22:34.318Z,38.47
2018-02-22T03:25:01.776Z,39.77
2018-02-22T03:27:29.235Z,40.93
2018-02-22T03:29:56.695Z,36.87
2018-02-22T03:32:24.156Z,37.23
2018-02-22T03:34:51.615Z,39.10
2018-02-22T03:37:19.052Z,39.23
2018-02-22T03:39:47.287Z,39.03
2018-02-22T03:42:14.751Z,37.00
2018-02-22T03:44:42.960Z,38.47
2018-02-22T03:47:10.415Z,38.70
2018-02-22T03:49:37.896Z,38.23
2018-02-22T03:52:05.370Z,38.83
2018-02-22T03:54:32.825Z,40.57
2018-02-22T03:57:01.101Z,41.43
2018-02-22T03:59:28.560Z,40.10
2018-02-22T04:01:56.811Z,39.10
2018-02-22T04:04:24.293Z,37.53
2018-02-22T04:06:52.526Z,36.03
2018-02-22T04:09:20.031Z,38.83
2018-02-22T04:11:47.518Z,39.97
2018-02-22T04:14:15.767Z,36.57
2018-02-22T04:16:44.101Z,39.87
2018-02-22T04:19:11.574Z,39.83
2018-02-22T04:21:39.034Z,40.53
2018-02-22T04:24:06.533Z,40.10
2018-02-22T04:26:33.997Z,40.67
2018-02-22T04:29:01.482Z,40.93
2018-02-22T04:31:28.948Z,40.67
2018-02-22T04:33:56.430Z,40.40
2018-02-22T04:36:24.649Z,40.53
2018-02-22T04:38:52.131Z,40.27
2018-02-22T04:41:19.632Z,39.37
2018-02-22T04:43:47.120Z,40.57
2018-02-22T04:46:15.343Z,41.23
2018-02-22T04:48:42.830Z,41.63
2018-02-22T04:51:10.326Z,41.43
2018-02-22T04:53:37.818Z,42.27
2018-02-22T04:56:05.299Z,41.93
2018-02-22T04:58:32.782Z,41.80
2018-02-22T05:01:01.058Z,40.90
2018-02-22T05:03:29.294Z,40.37
2018-02-22T05:05:57.525Z,43.30
2018-02-22T05:08:25.014Z,40.57
2018-02-22T05:10:52.481Z,39.50
2018-02-22T05:13:20.730Z,42.43
2018-02-22T05:15:48.210Z,41.63
2018-02-22T05:18:15.679Z,41.17
2018-02-22T05:20:43.198Z,42.83
2018-02-22T05:23:10.752Z,42.73
2018-02-22T05:25:38.215Z,40.97
2018-02-22T05:28:05.701Z,41.77
2018-02-22T05:30:33.180Z,40.47
2018-02-22T05:33:00.638Z,40.00
2018-02-22T05:35:28.110Z,40.13
2018-02-22T05:37:56.431Z,39.77
2018-02-22T05:40:23.910Z,41.17
2018-02-22T05:42:51.473Z,42.27
2018-02-22T05:45:18.933Z,40.93
2018-02-22T05:47:46.428Z,41.37
2018-02-22T05:50:14.660Z,40.30
2018-02-22T05:52:42.164Z,38.00
2018-02-22T05:55:09.633Z,40.13
2018-02-22T05:57:37.092Z,40.80
2018-02-22T06:00:04.579Z,40.70
2018-02-22T06:02:32.868Z,41.53
2018-02-22T06:05:00.318Z,40.63
2018-02-22T06:07:27.803Z,40.80
2018-02-22T06:09:55.278Z,41.57
2018-02-22T06:12:23.518Z,42.60
2018-02-22T06:14:50.999Z,41.03
2018-02-22T06:17:18.489Z,42.53
2018-02-22T06:19:45.979Z,41.87
2018-02-22T06:22:13.454Z,40.17
2018-02-22T06:24:40.909Z,42.17
2018-02-22T06:27:08.409Z,44.10
2018-02-22T06:29:36.662Z,41.93
2018-02-22T06:32:04.934Z,40.87
2018-02-22T06:34:32.406Z,42.13
2018-02-22T06:37:00.905Z,43.73
2018-02-22T06:39:28.369Z,43.57
2018-02-22T06:41:55.871Z,43.97
2018-02-22T06:44:23.330Z,41.77
2018-02-22T06:46:50.786Z,42.20
2018-02-22T06:49:18.269Z,42.93
2018-02-22T06:51:45.731Z,41.80
2018-02-22T06:54:13.241Z,42.67
2018-02-22T06:56:40.748Z,42.73
2018-02-22T06:59:08.176Z,42.37
2018-02-22T07:01:35.649Z,42.93
2018-02-22T07:04:03.909Z,42.20
2018-02-22T07:06:31.366Z,44.03
2018-02-22T07:08:58.838Z,44.93
2018-02-22T07:11:27.066Z,44.53
2018-02-22T07:13:54.583Z,44.17
2018-02-22T07:16:22.014Z,43.43
2018-02-22T07:18:49.485Z,45.80
2018-02-22T07:21:17.746Z,44.17
2018-02-22T07:23:45.210Z,42.87
2018-02-22T07:26:12.694Z,42.70
2018-02-22T07:28:40.925Z,43.97
2018-02-22T07:31:08.411Z,43.83
2018-02-22T07:33:35.887Z,42.53
2018-02-22T07:36:03.370Z,43.97
2018-02-22T07:38:30.855Z,43.13
2018-02-22T07:40:58.331Z,44.17
2018-02-22T07:43:25.791Z,43.73
2018-02-22T07:45:53.322Z,43.87
2018-02-22T07:48:20.778Z,44.73
2018-02-22T07:50:48.263Z,44.83
2018-02-22T07:53:15.726Z,44.70
2018-02-22T07:55:43.190Z,43.97
2018-02-22T07:58:10.642Z,44.47
2018-02-22T08:00:38.886Z,44.30
2018-02-22T08:03:06.342Z,44.93
2018-02-22T08:05:33.875Z,43.73
2018-02-22T08:08:02.162Z,44.57
2018-02-22T08:10:29.615Z,43.57
2018-02-22T08:12:57.092Z,42.30
2018-02-22T08:15:24.537Z,44.27
2018-02-22T08:17:52.038Z,44.60
2018-02-22T08:20:19.504Z,43.33
2018-02-22T08:22:46.998Z,42.50
2018-02-22T08:25:14.470Z,42.77
2018-02-22T08:27:42.046Z,41.17
2018-02-22T08:30:09.703Z,43.40
2018-02-22T08:32:37.980Z,40.73
2018-02-22T08:35:05.465Z,41.73
2018-02-22T08:37:32.926Z,42.30
2018-02-22T08:40:00.402Z,40.57
2018-02-22T08:42:27.858Z,41.43
2018-02-22T08:44:55.342Z,38.77
2018-02-22T08:47:22.808Z,39.17
2018-02-22T08:49:51.027Z,40.03
2018-02-22T08:52:18.505Z,37.33
2018-02-22T08:54:45.991Z,39.20
2018-02-22T08:57:13.456Z,38.43
2018-02-22T08:59:40.938Z,37.10
2018-02-22T09:02:08.478Z,37.97
2018-02-22T09:04:35.938Z,36.47
2018-02-22T09:07:03.423Z,36.13
2018-02-22T09:09:31.663Z,36.87
2018-02-22T09:11:59.162Z,35.93
2018-02-22T09:14:27.471Z,37.17
2018-02-22T09:16:54.951Z,34.17
2018-02-22T09:19:22.409Z,36.57
2018-02-22T09:21:49.868Z,37.67
2018-02-22T09:24:17.376Z,37.53
2018-02-22T09:26:44.829Z,36.83
2018-02-22T09:29:12.334Z,35.80
2018-02-22T09:31:39.774Z,34.43
2018-02-22T09:34:07.254Z,33.23
2018-02-22T09:36:34.775Z,34.73
2018-02-22T09:39:02.230Z,34.60
2018-02-22T09:41:29.682Z,32.40
2018-02-22T09:43:57.162Z,31.47
2018-02-22T09:46:24.619Z,29.63
2018-02-22T09:48:52.128Z,28.10
2018-02-22T09:51:19.605Z,24.47
2018-02-22T09:53:47.075Z,29.03
2018-02-22T09:56:14.549Z,25.93
2018-02-22T09:58:42.048Z,27.13
2018-02-22T10:01:09.519Z,26.67
2018-02-22T10:03:37.867Z,25.47
2018-02-22T10:06:05.322Z,26.63
2018-02-22T10:08:32.803Z,26.00
2018-02-22T10:11:00.284Z,25.27
2018-02-22T10:13:27.755Z,26.33
2018-02-22T10:15:55.234Z,25.43
2018-02-22T10:18:22.678Z,21.70
2018-02-22T10:20:50.178Z,25.73
2018-02-22T10:23:17.630Z,26.50
2018-02-22T10:25:45.110Z,25.90
2018-02-22T10:28:12.598Z,27.50
2018-02-22T10:30:40.071Z,27.93
2018-02-22T10:33:07.538Z,28.67
2018-02-22T10:35:35.022Z,28.57
2018-02-22T10:38:02.502Z,26.57
2018-02-22T10:40:29.998Z,26.57
2018-02-22T10:42:57.489Z,27.67
2018-02-22T10:45:24.953Z,26.97
2018-02-22T10:47:52.407Z,26.77
2018-02-22T10:50:19.891Z,26.87
2018-02-22T10:52:48.142Z,27.43
2018-02-22T10:55:15.607Z,27.57
2018-02-22T10:57:43.107Z,27.67
2018-02-22T11:00:10.563Z,25.63
2018-02-22T11:02:43.730Z,27.50
2018-02-22T11:05:11.979Z,26.30
2018-02-22T11:07:39.467Z,25.97
2018-02-22T11:10:06.926Z,26.67
2018-02-22T11:12:34.415Z,24.13
2018-02-22T11:15:01.882Z,24.10
2018-02-22T11:17:29.331Z,20.80
2018-02-22T11:19:56.826Z,19.57
2018-02-22T11:22:24.331Z,21.33
2018-02-22T11:24:51.818Z,22.90
2018-02-22T11:27:19.307Z,22.03
2018-02-22T11:29:47.552Z,21.87
2018-02-22T11:32:15.060Z,19.87
2018-02-22T11:34:42.521Z,20.40
2018-02-22T11:37:09.973Z,21.20
2018-02-22T11:39:37.480Z,21.03
2018-02-22T11:42:04.935Z,22.37
2018-02-22T11:44:33.207Z,19.70
2018-02-22T11:47:00.672Z,21.37
2018-02-22T11:49:28.184Z,22.80
2018-02-22T11:51:55.643Z,21.90
2018-02-22T11:54:23.122Z,22.67
2018-02-22T11:56:50.596Z,22.23
2018-02-22T11:59:18.138Z,22.40
2018-02-22T12:01:45.594Z,21.33
2018-02-22T12:04:13.063Z,21.20
2018-02-22T12:06:41.310Z,21.33
2018-02-22T12:09:08.861Z,19.97
2018-02-22T12:11:36.392Z,19.60
2018-02-22T12:14:04.100Z,18.43
2018-02-22T12:16:31.675Z,20.43
2018-02-22T12:18:59.170Z,18.87
2018-02-22T12:21:26.631Z,18.70
2018-02-22T12:23:54.114Z,20.43
2018-02-22T12:26:21.620Z,20.90
2018-02-22T12:28:49.077Z,20.37
2018-02-22T12:31:16.577Z,19.53
2018-02-22T12:33:44.794Z,20.17
2018-02-22T12:36:12.256Z,21.03
2018-02-22T12:38:40.530Z,19.70
2018-02-22T12:41:07.988Z,19.83
2018-02-22T12:43:37.125Z,19.57
2018-02-22T12:46:05.359Z,18.20
2018-02-22T12:48:33.038Z,19.27
2018-02-22T12:51:00.498Z,18.70
2018-02-22T12:53:27.991Z,19.97
2018-02-22T12:55:55.451Z,18.27
2018-02-22T12:58:22.902Z,18.53
2018-02-22T13:00:50.407Z,19.27
2018-02-22T13:03:17.898Z,20.27
2018-02-22T13:05:45.375Z,21.10
2018-02-22T13:08:12.864Z,20.63
2018-02-22T13:10:40.326Z,18.13
2018-02-22T13:13:07.816Z,18.60
2018-02-22T13:15:35.281Z,17.37
2018-02-22T13:18:02.766Z,17.33
2018-02-22T13:20:30.226Z,19.23
2018-02-22T13:22:57.755Z,16.97
2018-02-22T13:25:25.212Z,17.30
2018-02-22T13:27:52.662Z,17.33
2018-02-22T13:30:20.150Z,17.70
2018-02-22T13:32:59.362Z,17.60
2018-02-22T13:35:26.862Z,19.13
2018-02-22T13:38:14.963Z,19.23
2018-02-22T13:40:43.221Z,17.73
2018-02-22T13:43:10.839Z,17.53
2018-02-22T13:45:38.283Z,19.10
2018-02-22T13:48:05.809Z,18.67
2018-02-22T13:50:45.051Z,18.07
2018-02-22T13:53:12.539Z,18.63
2018-02-22T13:55:39.990Z,20.10
2018-02-22T13:58:07.474Z,18.80
2018-02-22T14:00:46.726Z,18.13
2018-02-22T14:03:14.201Z,17.70
2018-02-22T14:05:41.718Z,18.53
2018-02-22T14:08:09.199Z,17.97
2018-02-22T14:10:36.663Z,19.03
2018-02-22T14:13:04.134Z,18.20
2018-02-22T14:15:31.582Z,18.07
2018-02-22T14:17:59.059Z,18.07
2018-02-22T14:20:26.574Z,17.27
2018-02-22T14:22:54.047Z,17.70
2018-02-22T14:25:21.502Z,16.30
2018-02-22T14:27:49.754Z,17.00
2018-02-22T14:30:17.210Z,16.90
2018-02-22T14:32:44.695Z,16.47
2018-02-22T14:35:12.177Z,18.33
2018-02-22T14:37:39.664Z,16.70
2018-02-22T14:40:07.149Z,16.27
2018-02-22T14:42:34.662Z,18.63
2018-02-22T14:45:02.919Z,19.20
2018-02-22T14:47:30.404Z,21.27
2018-02-22T14:49:57.990Z,21.30
2018-02-22T14:52:25.484Z,21.00
2018-02-22T14:54:52.987Z,22.07
2018-02-22T14:57:20.470Z,21.70
2018-02-22T14:59:47.962Z,21.90
2018-02-22T15:02:21.150Z,23.23
2018-02-22T15:04:48.631Z,20.87
2018-02-22T15:07:16.871Z,21.57
2018-02-22T15:09:44.338Z,21.97
2018-02-22T15:12:11.806Z,19.87
2018-02-22T15:14:39.295Z,19.43
2018-02-22T15:17:07.534Z,21.43
2018-02-22T15:19:34.994Z,21.87
2018-02-22T15:22:02.509Z,20.83
2018-02-22T15:24:29.974Z,21.27
2018-02-22T15:26:57.450Z,20.60
2018-02-22T15:29:25.693Z,23.67
2018-02-22T15:31:53.164Z,24.87
2018-02-22T15:34:20.654Z,23.90
2018-02-22T15:36:48.124Z,23.77
2018-02-22T15:39:16.386Z,25.37
2018-02-22T15:41:43.839Z,25.63
2018-02-22T15:44:11.325Z,25.93
2018-02-22T15:46:39.553Z,27.73
2018-02-22T15:49:07.011Z,28.63
2018-02-22T15:51:34.493Z,27.53
2018-02-22T15:54:01.950Z,29.10
2018-02-22T15:56:29.427Z,28.13
2018-02-22T15:58:57.658Z,27.00
2018-02-22T16:01:25.166Z,28.43
2018-02-22T16:03:52.622Z,28.90
2018-02-22T16:06:20.863Z,27.37
2018-02-22T16:08:48.346Z,28.33
2018-02-22T16:11:16.565Z,30.10
2018-02-22T16:13:44.045Z,27.37
2018-02-22T16:16:11.522Z,30.57
2018-02-22T16:18:39.002Z,28.63
2018-02-22T16:21:07.234Z,28.10
2018-02-22T16:23:34.718Z,30.90
2018-02-22T16:26:02.198Z,28.27
2018-02-22T16:28:29.651Z,29.20
2018-02-22T16:30:57.161Z,28.73
2018-02-22T16:33:24.622Z,30.87
2018-02-22T16:35:52.107Z,29.73
2018-02-22T16:38:20.336Z,30.17
2018-02-22T16:40:47.810Z,30.83
2018-02-22T16:43:15.271Z,31.00
2018-02-22T16:45:42.757Z,32.83
2018-02-22T16:48:10.986Z,31.73
2018-02-22T16:50:38.446Z,31.50
2018-02-22T16:53:05.970Z,31.57
2018-02-22T16:55:33.420Z,34.80
2018-02-22T16:58:00.881Z,33.07
2018-02-22T17:00:28.372Z,34.13
2018-02-22T17:02:55.867Z,31.27
2018-02-22T17:05:23.334Z,30.73
2018-02-22T17:07:50.914Z,32.43
2018-02-22T17:10:18.362Z,30.63
2018-02-22T17:12:45.813Z,30.03
2018-02-22T17:15:13.320Z,30.53
2018-02-22T17:17:45.710Z,32.10
2018-02-22T17:20:13.207Z,32.50
2018-02-22T17:22:40.658Z,31.77
2018-02-22T17:25:08.128Z,30.83
2018-02-22T17:27:41.219Z,29.60
2018-02-22T17:30:14.498Z,30.43
2018-02-22T17:32:42.742Z,29.80
2018-02-22T17:35:25.113Z,28.13
2018-02-22T17:38:07.454Z,25.00
2018-02-22T17:40:39.426Z,24.33
2018-02-22T17:43:06.911Z,21.30
2018-02-22T17:45:35.150Z,21.27
2018-02-22T17:48:02.619Z,21.37
2018-02-22T17:50:30.094Z,20.30
2018-02-22T17:52:58.326Z,22.17
2018-02-22T17:55:25.813Z,17.60
2018-02-22T17:57:54.048Z,16.00
2018-02-22T18:00:21.497Z,17.77
2018-02-22T18:02:48.996Z,16.60
2018-02-22T18:05:17.239Z,17.40
2018-02-22T18:07:45.473Z,17.23
2018-02-22T18:10:13.695Z,15.63
2018-02-22T18:12:41.192Z,16.10
2018-02-22T18:15:09.428Z,15.33
2018-02-22T18:17:36.910Z,16.67
2018-02-22T18:20:04.376Z,15.70
2018-02-22T18:22:31.866Z,16.17
2018-02-22T18:24:59.338Z,16.10
2018-02-22T18:27:26.793Z,15.27
2018-02-22T18:29:54.287Z,13.80
2018-02-22T18:32:21.790Z,13.53
2018-02-22T18:34:49.398Z,13.27
2018-02-22T18:37:22.594Z,12.87
2018-02-22T18:39:50.052Z,12.83
2018-02-22T18:42:20.373Z,13.33
2018-02-22T18:44:53.586Z,12.60
2018-02-22T18:47:21.041Z,13.20
2018-02-22T18:49:48.606Z,12.13
2018-02-22T18:52:16.061Z,14.40
2018-02-22T18:54:43.563Z,13.03
2018-02-22T18:57:11.014Z,13.57
2018-02-22T18:59:38.509Z,14.13
2018-02-22T19:02:06.013Z,13.20
2018-02-22T19:04:34.250Z,14.67
2018-02-22T19:07:01.714Z,20.63
2018-02-22T19:09:29.207Z,13.90
2018-02-22T19:11:56.670Z,12.13
2018-02-22T19:14:24.149Z,12.03
2018-02-22T19:16:51.645Z,15.50
2018-02-22T19:19:19.139Z,15.77
2018-02-22T19:21:47.395Z,14.23
2018-02-22T19:24:14.869Z,12.70
2018-02-22T19:26:42.359Z,11.83
2018-02-22T19:29:09.863Z,17.63
2018-02-22T19:31:37.325Z,16.27
2018-02-22T19:34:05.603Z,12.43
2018-02-22T19:36:33.053Z,11.17
2018-02-22T19:39:00.520Z,12.43
2018-02-22T19:41:28.031Z,10.60
2018-02-22T19:43:55.519Z,9.53
2018-02-22T19:46:22.977Z,9.77
2018-02-22T19:48:50.463Z,8.53
2018-02-22T19:51:18.698Z,9.97
2018-02-22T19:53:46.262Z,8.80
2018-02-22T19:56:13.726Z,9.27
2018-02-22T19:58:41.214Z,8.60
2018-02-22T20:01:08.743Z,8.77
2018-02-22T20:03:36.178Z,8.20
2018-02-22T20:06:03.626Z,9.03
2018-02-22T20:08:31.125Z,9.63
2018-02-22T20:10:59.347Z,11.93
2018-02-22T20:13:26.797Z,9.10
2018-02-22T20:15:54.295Z,8.87
2018-02-22T20:18:21.782Z,8.40
2018-02-22T20:20:49.262Z,8.63
2018-02-22T20:23:16.743Z,7.90
2018-02-22T20:25:44.229Z,7.80
2018-02-22T20:28:11.706Z,8.57
2018-02-22T20:30:39.162Z,9.00
2018-02-22T20:33:07.395Z,8.20
2018-02-22T20:35:35.635Z,8.43
2018-02-22T20:38:03.131Z,9.03
2018-02-22T20:40:30.618Z,10.57
2018-02-22T20:42:58.087Z,17.53
2018-02-22T20:45:26.348Z,21.20
2018-02-22T20:47:53.830Z,9.07
2018-02-22T20:50:21.299Z,8.83
2018-02-22T20:55:49.406Z,8.50
2018-02-22T20:58:16.920Z,8.90
2018-02-22T21:00:44.379Z,9.00
2018-02-22T21:03:12.630Z,8.03
2018-02-22T21:05:40.103Z,8.17
2018-02-22T21:08:07.585Z,9.03
2018-02-22T21:10:35.039Z,7.87
2018-02-22T21:13:03.253Z,9.27
2018-02-22T21:15:30.797Z,9.97
2018-02-22T21:17:58.251Z,9.10
2018-02-22T21:20:25.731Z,9.73
2018-02-22T21:22:53.187Z,9.27
2018-02-22T21:25:20.677Z,8.57
2018-02-22T21:27:48.197Z,9.80
2018-02-22T21:30:15.662Z,8.00
2018-02-22T21:32:43.215Z,7.57
2018-02-22T21:35:11.393Z,8.87
2018-02-22T21:37:39.614Z,9.70
2018-02-22T21:40:07.105Z,10.17
2018-02-22T21:42:34.558Z,8.93
2018-02-22T21:45:02.511Z,8.30
2018-02-22T21:47:30.918Z,8.57
2018-02-22T21:49:58.382Z,8.70
2018-02-22T21:52:25.841Z,8.00
2018-02-22T21:54:53.339Z,8.17
2018-02-22T21:57:20.806Z,8.57
2018-02-22T21:59:48.266Z,8.27
2018-02-22T22:02:16.506Z,8.70
2018-02-22T22:04:44.730Z,7.93
2018-02-22T22:07:12.213Z,7.60
2018-02-22T22:09:39.671Z,8.30
2018-02-22T22:12:07.142Z,8.27
2018-02-22T22:14:34.589Z,7.50
2018-02-22T22:17:02.057Z,7.40
2018-02-22T22:19:29.530Z,8.67
2018-02-22T22:21:56.985Z,8.53
2018-02-22T22:24:24.490Z,7.67
2018-02-22T22:26:51.949Z,7.83
2018-02-22T22:29:20.166Z,7.57
2018-02-22T22:31:47.662Z,8.07
2018-02-22T22:34:15.878Z,8.40
2018-02-22T22:36:43.366Z,7.47
2018-02-22T22:39:10.846Z,8.73
2018-02-22T22:41:39.061Z,8.97
2018-02-22T22:44:06.583Z,7.73
2018-02-22T22:46:34.808Z,8.50
2018-02-22T22:49:02.266Z,8.27
2018-02-22T22:51:29.712Z,8.73
2018-02-22T22:53:57.190Z,8.17
2018-02-22T22:56:24.642Z,8.93
2018-02-22T22:58:52.144Z,8.53
2018-02-22T23:01:19.602Z,8.10
2018-02-22T23:03:47.079Z,8.70
2018-02-22T23:06:14.555Z,8.67
2018-02-22T23:08:42.013Z,8.53
2018-02-22T23:11:09.470Z,8.60
2018-02-22T23:13:36.984Z,8.17
2018-02-22T23:16:04.446Z,8.87
2018-02-22T23:18:32.670Z,8.70
2018-02-22T23:21:00.139Z,9.23
2018-02-22T23:23:27.594Z,8.13
2018-02-22T23:25:55.068Z,7.73
2018-02-22T23:28:22.514Z,8.73
2018-02-22T23:30:50.015Z,8.67
2018-02-22T23:33:18.258Z,8.17
2018-02-22T23:35:45.742Z,8.33
2018-02-22T23:38:13.982Z,8.10
2018-02-22T23:40:47.010Z,9.17
2018-02-22T23:43:14.503Z,9.10
2018-02-22T23:45:42.023Z,8.70
2018-02-22T23:48:09.506Z,8.40
2018-02-22T23:50:36.992Z,9.10
2018-02-22T23:53:04.454Z,8.30
2018-02-22T23:55:31.907Z,8.40
2018-02-22T23:57:59.370Z,8.07
